Pierre Van Ryneveld Airport

Airport
ICAO code: 
FAUP
IATA Code: 
UTN
Summary
ICAO Region: 
AFI
Territory: 
Location: 
, Northern Cape
Serving: 
Upington
Elevation: 
2782 ft
Coordinates: 
Aerial View: 
28° 23' 56.749" S, 21° 15' 36.86" E
Metar
Observation
FAUP 291800Z 22009KT CAVOK 30/M00 Q1012 NOSIG
Station
Upington, Up-Apt
Date/Time
2021-11-29 18:00:00
Wind direction
220°
Wind speed
09 kts
Lowest cloud amount
clouds and visibility OK
Temperature
30°C
Dew point
-0°C
Humidity
14%
QNH
1012 hPa
Weather condition
n/a

Runways

Designator Length Width Surface Rops
8/26 834 30 COM Yes/Yes
17/35 4900 60 ASP Yes/Yes
Airport map: 
Aerial View: 

SKYbrary Partners:

Safety knowledge contributed by: